sensor_id;sensor_type;location;lat;lon;timestamp;P1;durP1;ratioP1;P2;durP2;ratioP2
54923;SDS011;40825;52.270;20.984;2024-01-11T00:02:20;66.90;;;24.20;;
54923;SDS011;40825;52.270;20.984;2024-01-11T00:04:46;60.00;;;22.80;;
54923;SDS011;40825;52.270;20.984;2024-01-11T00:07:20;65.90;;;24.20;;
54923;SDS011;40825;52.270;20.984;2024-01-11T00:09:46;70.10;;;26.10;;
54923;SDS011;40825;52.270;20.984;2024-01-11T00:12:11;78.40;;;27.50;;
54923;SDS011;40825;52.270;20.984;2024-01-11T00:14:37;71.00;;;29.80;;
54923;SDS011;40825;52.270;20.984;2024-01-11T00:17:03;57.40;;;21.40;;
54923;SDS011;40825;52.270;20.984;2024-01-11T00:19:29;74.50;;;28.20;;
54923;SDS011;40825;52.270;20.984;2024-01-11T00:21:54;73.30;;;28.70;;
54923;SDS011;40825;52.270;20.984;2024-01-11T00:24:20;72.60;;;28.90;;
54923;SDS011;40825;52.270;20.984;2024-01-11T00:26:48;72.60;;;28.30;;
54923;SDS011;40825;52.270;20.984;2024-01-11T00:29:14;80.40;;;29.40;;
54923;SDS011;40825;52.270;20.984;2024-01-11T00:31:40;74.40;;;27.70;;
54923;SDS011;40825;52.270;20.984;2024-01-11T00:34:05;59.50;;;22.60;;
54923;SDS011;40825;52.270;20.984;2024-01-11T00:36:31;68.90;;;25.00;;
54923;SDS011;40825;52.270;20.984;2024-01-11T00:38:58;68.10;;;25.20;;
54923;SDS011;40825;52.270;20.984;2024-01-11T00:41:24;70.70;;;25.70;;
54923;SDS011;40825;52.270;20.984;2024-01-11T00:43:50;63.50;;;24.00;;
54923;SDS011;40825;52.270;20.984;2024-01-11T00:46:16;63.20;;;24.10;;
54923;SDS011;40825;52.270;20.984;2024-01-11T00:48:41;47.30;;;20.10;;
54923;SDS011;40825;52.270;20.984;2024-01-11T00:51:07;54.20;;;22.70;;
54923;SDS011;40825;52.270;20.984;2024-01-11T00:53:33;51.90;;;20.00;;
54923;SDS011;40825;52.270;20.984;2024-01-11T00:55:59;53.50;;;21.00;;
54923;SDS011;40825;52.270;20.984;2024-01-11T00:58:25;54.30;;;20.70;;
54923;SDS011;40825;52.270;20.984;2024-01-11T01:00:51;48.10;;;20.30;;
54923;SDS011;40825;52.270;20.984;2024-01-11T01:03:18;47.80;;;19.20;;
54923;SDS011;40825;52.270;20.984;2024-01-11T01:05:45;48.10;;;18.40;;
54923;SDS011;40825;52.270;20.984;2024-01-11T01:08:11;51.20;;;17.90;;
54923;SDS011;40825;52.270;20.984;2024-01-11T01:10:38;53.20;;;18.50;;
54923;SDS011;40825;52.270;20.984;2024-01-11T01:13:04;51.10;;;18.90;;
54923;SDS011;40825;52.270;20.984;2024-01-11T01:15:29;40.60;;;15.30;;
54923;SDS011;40825;52.270;20.984;2024-01-11T01:17:55;44.40;;;17.90;;
54923;SDS011;40825;52.270;20.984;2024-01-11T01:20:21;48.00;;;16.70;;
54923;SDS011;40825;52.270;20.984;2024-01-11T01:22:48;52.80;;;19.80;;
54923;SDS011;40825;52.270;20.984;2024-01-11T01:25:15;48.00;;;20.20;;
54923;SDS011;40825;52.270;20.984;2024-01-11T01:27:41;39.70;;;16.80;;
54923;SDS011;40825;52.270;20.984;2024-01-11T01:30:07;49.80;;;20.90;;
54923;SDS011;40825;52.270;20.984;2024-01-11T01:32:34;55.70;;;21.70;;
54923;SDS011;40825;52.270;20.984;2024-01-11T01:35:00;39.60;;;15.10;;
54923;SDS011;40825;52.270;20.984;2024-01-11T01:37:25;54.90;;;21.10;;
54923;SDS011;40825;52.270;20.984;2024-01-11T01:39:51;58.90;;;20.00;;
54923;SDS011;40825;52.270;20.984;2024-01-11T01:42:17;41.70;;;18.70;;
54923;SDS011;40825;52.270;20.984;2024-01-11T01:44:42;40.60;;;15.50;;
54923;SDS011;40825;52.270;20.984;2024-01-11T01:47:08;63.40;;;22.00;;
54923;SDS011;40825;52.270;20.984;2024-01-11T01:49:36;52.70;;;19.10;;
54923;SDS011;40825;52.270;20.984;2024-01-11T01:52:03;52.80;;;19.70;;
54923;SDS011;40825;52.270;20.984;2024-01-11T01:54:52;48.90;;;17.90;;
54923;SDS011;40825;52.270;20.984;2024-01-11T01:57:16;54.40;;;20.80;;
54923;SDS011;40825;52.270;20.984;2024-01-11T01:59:45;57.30;;;19.90;;
54923;SDS011;40825;52.270;20.984;2024-01-11T02:03:00;35.20;;;15.30;;
54923;SDS011;40825;52.270;20.984;2024-01-11T02:05:26;54.30;;;20.40;;
54923;SDS011;40825;52.270;20.984;2024-01-11T02:07:52;50.20;;;19.50;;
54923;SDS011;40825;52.270;20.984;2024-01-11T02:10:18;43.30;;;18.40;;
54923;SDS011;40825;52.270;20.984;2024-01-11T02:12:44;49.30;;;18.70;;
54923;SDS011;40825;52.270;20.984;2024-01-11T02:15:10;34.60;;;13.20;;
54923;SDS011;40825;52.270;20.984;2024-01-11T02:17:39;44.60;;;17.60;;
54923;SDS011;40825;52.270;20.984;2024-01-11T02:20:06;46.80;;;18.20;;
54923;SDS011;40825;52.270;20.984;2024-01-11T02:23:00;50.70;;;18.20;;
54923;SDS011;40825;52.270;20.984;2024-01-11T02:25:30;55.80;;;19.20;;
54923;SDS011;40825;52.270;20.984;2024-01-11T02:28:06;45.00;;;17.40;;
54923;SDS011;40825;52.270;20.984;2024-01-11T02:30:33;34.70;;;11.40;;
54923;SDS011;40825;52.270;20.984;2024-01-11T02:35:55;48.90;;;18.90;;
54923;SDS011;40825;52.270;20.984;2024-01-11T02:38:31;45.40;;;18.70;;
54923;SDS011;40825;52.270;20.984;2024-01-11T02:41:10;49.60;;;16.10;;
54923;SDS011;40825;52.270;20.984;2024-01-11T02:43:46;60.70;;;18.50;;
54923;SDS011;40825;52.270;20.984;2024-01-11T02:46:27;55.60;;;20.00;;
54923;SDS011;40825;52.270;20.984;2024-01-11T02:49:13;50.90;;;22.10;;
54923;SDS011;40825;52.270;20.984;2024-01-11T02:51:38;61.00;;;19.40;;
54923;SDS011;40825;52.270;20.984;2024-01-11T02:54:08;55.40;;;18.60;;
54923;SDS011;40825;52.270;20.984;2024-01-11T02:56:37;60.20;;;19.90;;
54923;SDS011;40825;52.270;20.984;2024-01-11T03:02:03;54.10;;;18.60;;
54923;SDS011;40825;52.270;20.984;2024-01-11T03:04:29;58.30;;;17.80;;
54923;SDS011;40825;52.270;20.984;2024-01-11T03:07:13;60.70;;;21.10;;
54923;SDS011;40825;52.270;20.984;2024-01-11T03:09:39;55.60;;;18.60;;
54923;SDS011;40825;52.270;20.984;2024-01-11T03:12:13;57.40;;;19.70;;
54923;SDS011;40825;52.270;20.984;2024-01-11T03:14:41;56.00;;;18.40;;
54923;SDS011;40825;52.270;20.984;2024-01-11T03:17:07;67.80;;;21.70;;
54923;SDS011;40825;52.270;20.984;2024-01-11T03:19:33;69.70;;;20.90;;
54923;SDS011;40825;52.270;20.984;2024-01-11T03:21:58;65.30;;;20.10;;
54923;SDS011;40825;52.270;20.984;2024-01-11T03:24:28;53.70;;;19.00;;
54923;SDS011;40825;52.270;20.984;2024-01-11T03:26:57;57.10;;;18.50;;
54923;SDS011;40825;52.270;20.984;2024-01-11T03:29:25;65.80;;;21.20;;
54923;SDS011;40825;52.270;20.984;2024-01-11T03:31:59;67.00;;;19.50;;
54923;SDS011;40825;52.270;20.984;2024-01-11T03:34:31;56.90;;;19.40;;
54923;SDS011;40825;52.270;20.984;2024-01-11T03:39:34;57.70;;;18.30;;
54923;SDS011;40825;52.270;20.984;2024-01-11T03:42:00;59.90;;;19.50;;
54923;SDS011;40825;52.270;20.984;2024-01-11T03:44:36;63.00;;;19.90;;
54923;SDS011;40825;52.270;20.984;2024-01-11T03:47:02;57.60;;;18.30;;
54923;SDS011;40825;52.270;20.984;2024-01-11T03:49:28;67.10;;;21.50;;
54923;SDS011;40825;52.270;20.984;2024-01-11T03:52:03;63.40;;;20.60;;
54923;SDS011;40825;52.270;20.984;2024-01-11T03:54:58;66.20;;;20.70;;
54923;SDS011;40825;52.270;20.984;2024-01-11T03:57:29;62.20;;;20.10;;
54923;SDS011;40825;52.270;20.984;2024-01-11T04:00:04;56.40;;;17.60;;
54923;SDS011;40825;52.270;20.984;2024-01-11T04:02:31;62.50;;;21.10;;
54923;SDS011;40825;52.270;20.984;2024-01-11T04:04:57;63.50;;;20.00;;
54923;SDS011;40825;52.270;20.984;2024-01-11T04:07:22;78.60;;;23.90;;
54923;SDS011;40825;52.270;20.984;2024-01-11T04:09:48;61.10;;;21.60;;
54923;SDS011;40825;52.270;20.984;2024-01-11T04:12:13;65.30;;;22.10;;
54923;SDS011;40825;52.270;20.984;2024-01-11T04:14:39;59.00;;;21.50;;
54923;SDS011;40825;52.270;20.984;2024-01-11T04:17:14;60.60;;;24.50;;
54923;SDS011;40825;52.270;20.984;2024-01-11T04:20:09;57.60;;;19.40;;
54923;SDS011;40825;52.270;20.984;2024-01-11T04:22:35;64.50;;;23.30;;
54923;SDS011;40825;52.270;20.984;2024-01-11T04:25:01;68.80;;;22.70;;
54923;SDS011;40825;52.270;20.984;2024-01-11T04:27:36;57.60;;;20.20;;
54923;SDS011;40825;52.270;20.984;2024-01-11T04:30:02;60.50;;;23.00;;
54923;SDS011;40825;52.270;20.984;2024-01-11T04:32:34;64.40;;;20.40;;
54923;SDS011;40825;52.270;20.984;2024-01-11T04:34:59;65.80;;;22.80;;
54923;SDS011;40825;52.270;20.984;2024-01-11T04:37:25;66.00;;;21.50;;
54923;SDS011;40825;52.270;20.984;2024-01-11T04:39:51;66.80;;;24.10;;
54923;SDS011;40825;52.270;20.984;2024-01-11T04:42:16;63.80;;;22.90;;
54923;SDS011;40825;52.270;20.984;2024-01-11T04:45:00;57.30;;;19.30;;
54923;SDS011;40825;52.270;20.984;2024-01-11T04:47:25;60.70;;;21.10;;
54923;SDS011;40825;52.270;20.984;2024-01-11T04:49:51;64.30;;;21.50;;
54923;SDS011;40825;52.270;20.984;2024-01-11T04:52:19;62.00;;;21.20;;
54923;SDS011;40825;52.270;20.984;2024-01-11T04:54:55;72.00;;;22.60;;
54923;SDS011;40825;52.270;20.984;2024-01-11T04:57:38;63.60;;;23.20;;
54923;SDS011;40825;52.270;20.984;2024-01-11T05:00:08;66.70;;;22.10;;
54923;SDS011;40825;52.270;20.984;2024-01-11T05:02:38;69.70;;;23.60;;
54923;SDS011;40825;52.270;20.984;2024-01-11T05:08:05;60.80;;;20.40;;
54923;SDS011;40825;52.270;20.984;2024-01-11T05:10:31;56.90;;;19.50;;
54923;SDS011;40825;52.270;20.984;2024-01-11T05:12:59;59.20;;;20.60;;
54923;SDS011;40825;52.270;20.984;2024-01-11T05:15:25;54.80;;;20.00;;
54923;SDS011;40825;52.270;20.984;2024-01-11T05:17:54;62.10;;;20.50;;
54923;SDS011;40825;52.270;20.984;2024-01-11T05:20:23;58.70;;;19.80;;
54923;SDS011;40825;52.270;20.984;2024-01-11T05:25:37;66.20;;;20.90;;
54923;SDS011;40825;52.270;20.984;2024-01-11T05:28:13;61.00;;;20.10;;
54923;SDS011;40825;52.270;20.984;2024-01-11T05:30:39;50.90;;;17.60;;
54923;SDS011;40825;52.270;20.984;2024-01-11T05:33:04;51.30;;;17.30;;
54923;SDS011;40825;52.270;20.984;2024-01-11T05:35:30;54.00;;;19.10;;
54923;SDS011;40825;52.270;20.984;2024-01-11T05:37:56;53.50;;;20.10;;
54923;SDS011;40825;52.270;20.984;2024-01-11T05:41:00;58.40;;;19.20;;
54923;SDS011;40825;52.270;20.984;2024-01-11T05:43:25;58.60;;;17.50;;
54923;SDS011;40825;52.270;20.984;2024-01-11T05:45:58;40.30;;;14.20;;
54923;SDS011;40825;52.270;20.984;2024-01-11T05:48:23;51.60;;;17.90;;
54923;SDS011;40825;52.270;20.984;2024-01-11T05:50:49;53.50;;;18.50;;
54923;SDS011;40825;52.270;20.984;2024-01-11T05:53:15;48.10;;;17.80;;
54923;SDS011;40825;52.270;20.984;2024-01-11T05:55:51;52.00;;;17.60;;
54923;SDS011;40825;52.270;20.984;2024-01-11T05:58:29;35.30;;;13.40;;
54923;SDS011;40825;52.270;20.984;2024-01-11T06:00:55;49.40;;;16.70;;
54923;SDS011;40825;52.270;20.984;2024-01-11T06:03:20;46.40;;;17.10;;
54923;SDS011;40825;52.270;20.984;2024-01-11T06:08:25;45.60;;;17.50;;
54923;SDS011;40825;52.270;20.984;2024-01-11T06:11:12;47.00;;;16.40;;
54923;SDS011;40825;52.270;20.984;2024-01-11T06:13:45;43.70;;;16.40;;
54923;SDS011;40825;52.270;20.984;2024-01-11T06:16:10;44.90;;;16.10;;
54923;SDS011;40825;52.270;20.984;2024-01-11T06:18:36;39.40;;;16.60;;
54923;SDS011;40825;52.270;20.984;2024-01-11T06:21:05;46.40;;;16.40;;
54923;SDS011;40825;52.270;20.984;2024-01-11T06:23:31;38.70;;;14.40;;
54923;SDS011;40825;52.270;20.984;2024-01-11T06:25:59;51.10;;;16.40;;
54923;SDS011;40825;52.270;20.984;2024-01-11T06:28:28;42.50;;;14.80;;
54923;SDS011;40825;52.270;20.984;2024-01-11T06:30:56;42.60;;;14.00;;
54923;SDS011;40825;52.270;20.984;2024-01-11T06:33:22;41.40;;;16.10;;
54923;SDS011;40825;52.270;20.984;2024-01-11T06:35:47;33.80;;;13.40;;
54923;SDS011;40825;52.270;20.984;2024-01-11T06:38:18;42.20;;;14.30;;
54923;SDS011;40825;52.270;20.984;2024-01-11T06:40:44;44.10;;;14.40;;
54923;SDS011;40825;52.270;20.984;2024-01-11T06:49:45;38.00;;;11.80;;
54923;SDS011;40825;52.270;20.984;2024-01-11T06:52:22;33.80;;;10.90;;
54923;SDS011;40825;52.270;20.984;2024-01-11T06:54:50;42.00;;;14.90;;
54923;SDS011;40825;52.270;20.984;2024-01-11T06:57:18;34.60;;;10.40;;
54923;SDS011;40825;52.270;20.984;2024-01-11T06:59:52;41.10;;;13.40;;
54923;SDS011;40825;52.270;20.984;2024-01-11T07:02:30;40.40;;;13.70;;
54923;SDS011;40825;52.270;20.984;2024-01-11T07:05:10;35.10;;;11.70;;
54923;SDS011;40825;52.270;20.984;2024-01-11T07:07:37;34.90;;;11.80;;
54923;SDS011;40825;52.270;20.984;2024-01-11T07:10:12;33.50;;;12.60;;
54923;SDS011;40825;52.270;20.984;2024-01-11T07:12:38;44.00;;;12.60;;
54923;SDS011;40825;52.270;20.984;2024-01-11T07:15:18;33.90;;;13.10;;
54923;SDS011;40825;52.270;20.984;2024-01-11T07:17:44;37.20;;;13.20;;
54923;SDS011;40825;52.270;20.984;2024-01-11T07:20:09;41.40;;;13.30;;
54923;SDS011;40825;52.270;20.984;2024-01-11T07:22:35;42.50;;;13.20;;
54923;SDS011;40825;52.270;20.984;2024-01-11T07:25:12;37.00;;;12.50;;
54923;SDS011;40825;52.270;20.984;2024-01-11T07:27:59;33.10;;;11.80;;
54923;SDS011;40825;52.270;20.984;2024-01-11T07:30:30;33.60;;;11.40;;
54923;SDS011;40825;52.270;20.984;2024-01-11T07:32:55;27.90;;;9.90;;
54923;SDS011;40825;52.270;20.984;2024-01-11T07:35:34;39.60;;;10.60;;
54923;SDS011;40825;52.270;20.984;2024-01-11T07:38:02;35.00;;;12.50;;
54923;SDS011;40825;52.270;20.984;2024-01-11T07:40:44;35.30;;;11.50;;
54923;SDS011;40825;52.270;20.984;2024-01-11T07:43:12;40.10;;;13.70;;
54923;SDS011;40825;52.270;20.984;2024-01-11T07:45:51;36.00;;;12.60;;
54923;SDS011;40825;52.270;20.984;2024-01-11T07:48:16;38.20;;;12.40;;
54923;SDS011;40825;52.270;20.984;2024-01-11T07:51:05;38.00;;;11.70;;
54923;SDS011;40825;52.270;20.984;2024-01-11T07:53:51;37.40;;;11.90;;
54923;SDS011;40825;52.270;20.984;2024-01-11T07:56:17;38.20;;;13.40;;
54923;SDS011;40825;52.270;20.984;2024-01-11T07:59:03;34.00;;;12.60;;
54923;SDS011;40825;52.270;20.984;2024-01-11T08:01:49;38.30;;;12.50;;
54923;SDS011;40825;52.270;20.984;2024-01-11T08:04:25;41.10;;;13.50;;
54923;SDS011;40825;52.270;20.984;2024-01-11T08:07:14;39.90;;;12.70;;
54923;SDS011;40825;52.270;20.984;2024-01-11T08:09:49;38.80;;;11.80;;
54923;SDS011;40825;52.270;20.984;2024-01-11T08:12:26;38.60;;;11.80;;
54923;SDS011;40825;52.270;20.984;2024-01-11T08:15:09;46.30;;;14.60;;
54923;SDS011;40825;52.270;20.984;2024-01-11T08:18:36;40.10;;;10.90;;
54923;SDS011;40825;52.270;20.984;2024-01-11T08:21:12;43.30;;;13.00;;
54923;SDS011;40825;52.270;20.984;2024-01-11T08:23:43;43.70;;;12.80;;
54923;SDS011;40825;52.270;20.984;2024-01-11T08:26:19;44.60;;;13.50;;
54923;SDS011;40825;52.270;20.984;2024-01-11T08:29:08;26.00;;;7.70;;
54923;SDS011;40825;52.270;20.984;2024-01-11T08:31:55;44.00;;;14.20;;
54923;SDS011;40825;52.270;20.984;2024-01-11T08:41:41;36.30;;;10.70;;
54923;SDS011;40825;52.270;20.984;2024-01-11T08:44:12;40.70;;;12.40;;
54923;SDS011;40825;52.270;20.984;2024-01-11T08:50:40;33.60;;;10.50;;
54923;SDS011;40825;52.270;20.984;2024-01-11T08:53:05;36.40;;;11.30;;
54923;SDS011;40825;52.270;20.984;2024-01-11T08:55:34;39.10;;;10.90;;
54923;SDS011;40825;52.270;20.984;2024-01-11T08:58:40;34.80;;;11.40;;
54923;SDS011;40825;52.270;20.984;2024-01-11T09:04:24;30.50;;;10.20;;
54923;SDS011;40825;52.270;20.984;2024-01-11T09:07:57;36.90;;;11.20;;
54923;SDS011;40825;52.270;20.984;2024-01-11T09:11:02;36.50;;;11.60;;
54923;SDS011;40825;52.270;20.984;2024-01-11T09:13:59;36.70;;;12.70;;
54923;SDS011;40825;52.270;20.984;2024-01-11T09:16:28;35.10;;;11.60;;
54923;SDS011;40825;52.270;20.984;2024-01-11T09:19:07;31.80;;;11.00;;
54923;SDS011;40825;52.270;20.984;2024-01-11T09:21:43;38.60;;;12.80;;
54923;SDS011;40825;52.270;20.984;2024-01-11T09:24:12;39.40;;;14.00;;
54923;SDS011;40825;52.270;20.984;2024-01-11T09:26:37;43.50;;;12.80;;
54923;SDS011;40825;52.270;20.984;2024-01-11T09:29:03;37.90;;;12.50;;
54923;SDS011;40825;52.270;20.984;2024-01-11T09:31:51;35.90;;;12.50;;
54923;SDS011;40825;52.270;20.984;2024-01-11T09:34:22;37.00;;;11.50;;
54923;SDS011;40825;52.270;20.984;2024-01-11T09:46:39;32.20;;;9.10;;
54923;SDS011;40825;52.270;20.984;2024-01-11T09:49:28;33.10;;;12.30;;
54923;SDS011;40825;52.270;20.984;2024-01-11T09:51:56;34.70;;;10.40;;
54923;SDS011;40825;52.270;20.984;2024-01-11T09:54:44;35.20;;;12.50;;
54923;SDS011;40825;52.270;20.984;2024-01-11T09:57:40;29.90;;;10.90;;
54923;SDS011;40825;52.270;20.984;2024-01-11T10:00:50;33.10;;;11.90;;
54923;SDS011;40825;52.270;20.984;2024-01-11T10:03:17;32.10;;;10.70;;
54923;SDS011;40825;52.270;20.984;2024-01-11T10:05:49;31.00;;;11.30;;
54923;SDS011;40825;52.270;20.984;2024-01-11T10:08:27;33.80;;;11.50;;
54923;SDS011;40825;52.270;20.984;2024-01-11T10:11:04;33.70;;;11.20;;
54923;SDS011;40825;52.270;20.984;2024-01-11T10:13:41;32.00;;;10.90;;
54923;SDS011;40825;52.270;20.984;2024-01-11T10:16:28;32.60;;;11.40;;
54923;SDS011;40825;52.270;20.984;2024-01-11T10:19:20;29.40;;;10.70;;
54923;SDS011;40825;52.270;20.984;2024-01-11T10:21:46;32.30;;;11.00;;
54923;SDS011;40825;52.270;20.984;2024-01-11T10:24:17;29.50;;;10.20;;
54923;SDS011;40825;52.270;20.984;2024-01-11T10:26:59;35.00;;;11.00;;
54923;SDS011;40825;52.270;20.984;2024-01-11T10:29:58;32.00;;;11.50;;
54923;SDS011;40825;52.270;20.984;2024-01-11T10:33:27;33.10;;;10.60;;
54923;SDS011;40825;52.270;20.984;2024-01-11T10:35:52;31.20;;;11.20;;
54923;SDS011;40825;52.270;20.984;2024-01-11T10:38:19;32.20;;;11.00;;
54923;SDS011;40825;52.270;20.984;2024-01-11T10:40:55;40.60;;;13.30;;
54923;SDS011;40825;52.270;20.984;2024-01-11T10:43:28;33.50;;;12.00;;
54923;SDS011;40825;52.270;20.984;2024-01-11T10:46:00;36.80;;;13.00;;
54923;SDS011;40825;52.270;20.984;2024-01-11T10:48:31;35.90;;;11.50;;
54923;SDS011;40825;52.270;20.984;2024-01-11T10:51:12;33.50;;;12.40;;
54923;SDS011;40825;52.270;20.984;2024-01-11T10:59:49;39.70;;;12.00;;
54923;SDS011;40825;52.270;20.984;2024-01-11T11:05:02;37.80;;;13.00;;
54923;SDS011;40825;52.270;20.984;2024-01-11T11:07:30;43.40;;;13.60;;
54923;SDS011;40825;52.270;20.984;2024-01-11T11:10:00;46.10;;;15.80;;
54923;SDS011;40825;52.270;20.984;2024-01-11T11:12:33;44.70;;;13.40;;
54923;SDS011;40825;52.270;20.984;2024-01-11T11:15:06;45.90;;;13.20;;
54923;SDS011;40825;52.270;20.984;2024-01-11T11:17:36;41.50;;;13.30;;
54923;SDS011;40825;52.270;20.984;2024-01-11T11:20:05;46.10;;;15.50;;
54923;SDS011;40825;52.270;20.984;2024-01-11T11:22:37;46.00;;;14.30;;
54923;SDS011;40825;52.270;20.984;2024-01-11T11:25:11;46.90;;;16.00;;
54923;SDS011;40825;52.270;20.984;2024-01-11T11:27:49;45.40;;;17.00;;
54923;SDS011;40825;52.270;20.984;2024-01-11T11:30:18;43.90;;;15.40;;
54923;SDS011;40825;52.270;20.984;2024-01-11T11:32:45;46.70;;;16.40;;
54923;SDS011;40825;52.270;20.984;2024-01-11T11:35:11;51.70;;;15.90;;
54923;SDS011;40825;52.270;20.984;2024-01-11T11:37:37;51.10;;;16.50;;
54923;SDS011;40825;52.270;20.984;2024-01-11T11:40:06;36.80;;;13.10;;
54923;SDS011;40825;52.270;20.984;2024-01-11T11:42:36;36.10;;;11.90;;
54923;SDS011;40825;52.270;20.984;2024-01-11T11:45:02;42.80;;;13.30;;
54923;SDS011;40825;52.270;20.984;2024-01-11T11:47:33;45.70;;;16.10;;
54923;SDS011;40825;52.270;20.984;2024-01-11T11:50:08;42.60;;;12.90;;
54923;SDS011;40825;52.270;20.984;2024-01-11T11:52:36;42.90;;;14.80;;
54923;SDS011;40825;52.270;20.984;2024-01-11T11:55:03;47.60;;;13.40;;
54923;SDS011;40825;52.270;20.984;2024-01-11T11:57:31;51.40;;;16.30;;
54923;SDS011;40825;52.270;20.984;2024-01-11T11:59:58;46.40;;;13.60;;
54923;SDS011;40825;52.270;20.984;2024-01-11T12:02:27;50.50;;;14.30;;
54923;SDS011;40825;52.270;20.984;2024-01-11T12:04:53;54.30;;;18.20;;
54923;SDS011;40825;52.270;20.984;2024-01-11T12:07:20;51.50;;;16.70;;
54923;SDS011;40825;52.270;20.984;2024-01-11T12:09:48;54.30;;;17.40;;
54923;SDS011;40825;52.270;20.984;2024-01-11T12:12:13;48.10;;;16.20;;
54923;SDS011;40825;52.270;20.984;2024-01-11T12:14:41;45.90;;;14.40;;
54923;SDS011;40825;52.270;20.984;2024-01-11T12:17:08;45.90;;;14.70;;
54923;SDS011;40825;52.270;20.984;2024-01-11T12:19:34;52.10;;;14.90;;
54923;SDS011;40825;52.270;20.984;2024-01-11T12:22:00;51.60;;;16.50;;
54923;SDS011;40825;52.270;20.984;2024-01-11T12:24:34;51.30;;;16.90;;
54923;SDS011;40825;52.270;20.984;2024-01-11T12:27:10;53.80;;;16.30;;
54923;SDS011;40825;52.270;20.984;2024-01-11T12:29:45;52.70;;;15.40;;
54923;SDS011;40825;52.270;20.984;2024-01-11T12:32:11;50.80;;;16.10;;
54923;SDS011;40825;52.270;20.984;2024-01-11T12:34:37;49.70;;;16.20;;
54923;SDS011;40825;52.270;20.984;2024-01-11T12:37:06;55.30;;;19.20;;
54923;SDS011;40825;52.270;20.984;2024-01-11T12:39:32;45.90;;;15.20;;
54923;SDS011;40825;52.270;20.984;2024-01-11T12:42:05;51.60;;;17.70;;
54923;SDS011;40825;52.270;20.984;2024-01-11T12:44:42;44.90;;;15.60;;
54923;SDS011;40825;52.270;20.984;2024-01-11T12:47:16;51.30;;;15.00;;
54923;SDS011;40825;52.270;20.984;2024-01-11T12:49:52;48.20;;;16.10;;
54923;SDS011;40825;52.270;20.984;2024-01-11T12:52:35;48.00;;;16.20;;
54923;SDS011;40825;52.270;20.984;2024-01-11T12:55:04;39.80;;;13.80;;
54923;SDS011;40825;52.270;20.984;2024-01-11T12:57:36;45.90;;;16.10;;
54923;SDS011;40825;52.270;20.984;2024-01-11T13:00:11;51.10;;;17.40;;
54923;SDS011;40825;52.270;20.984;2024-01-11T13:02:40;46.30;;;16.50;;
54923;SDS011;40825;52.270;20.984;2024-01-11T13:05:08;29.50;;;10.50;;
54923;SDS011;40825;52.270;20.984;2024-01-11T13:07:33;39.60;;;14.20;;
54923;SDS011;40825;52.270;20.984;2024-01-11T13:10:01;45.30;;;14.70;;
54923;SDS011;40825;52.270;20.984;2024-01-11T13:12:29;41.50;;;13.90;;
54923;SDS011;40825;52.270;20.984;2024-01-11T13:17:32;37.10;;;13.70;;
54923;SDS011;40825;52.270;20.984;2024-01-11T13:19:58;43.90;;;14.10;;
54923;SDS011;40825;52.270;20.984;2024-01-11T13:22:24;42.30;;;14.60;;
54923;SDS011;40825;52.270;20.984;2024-01-11T13:24:50;42.80;;;13.90;;
54923;SDS011;40825;52.270;20.984;2024-01-11T13:27:16;38.30;;;13.60;;
54923;SDS011;40825;52.270;20.984;2024-01-11T13:29:41;41.70;;;14.40;;
54923;SDS011;40825;52.270;20.984;2024-01-11T13:32:10;39.00;;;14.20;;
54923;SDS011;40825;52.270;20.984;2024-01-11T13:34:36;42.10;;;13.20;;
54923;SDS011;40825;52.270;20.984;2024-01-11T13:37:03;39.20;;;13.70;;
54923;SDS011;40825;52.270;20.984;2024-01-11T13:39:29;39.80;;;13.90;;
54923;SDS011;40825;52.270;20.984;2024-01-11T13:41:57;44.60;;;14.60;;
54923;SDS011;40825;52.270;20.984;2024-01-11T13:44:23;38.00;;;13.50;;
54923;SDS011;40825;52.270;20.984;2024-01-11T13:46:49;35.60;;;13.10;;
54923;SDS011;40825;52.270;20.984;2024-01-11T13:49:18;39.90;;;13.90;;
54923;SDS011;40825;52.270;20.984;2024-01-11T13:51:58;44.30;;;15.90;;
54923;SDS011;40825;52.270;20.984;2024-01-11T13:54:36;42.60;;;15.20;;
54923;SDS011;40825;52.270;20.984;2024-01-11T13:57:10;44.10;;;15.20;;
54923;SDS011;40825;52.270;20.984;2024-01-11T13:59:45;46.40;;;15.80;;
54923;SDS011;40825;52.270;20.984;2024-01-11T14:02:14;39.30;;;14.40;;
54923;SDS011;40825;52.270;20.984;2024-01-11T14:04:49;45.50;;;16.10;;
54923;SDS011;40825;52.270;20.984;2024-01-11T14:07:22;45.80;;;17.30;;
54923;SDS011;40825;52.270;20.984;2024-01-11T14:10:06;47.00;;;14.60;;
54923;SDS011;40825;52.270;20.984;2024-01-11T14:12:34;44.80;;;15.30;;
54923;SDS011;40825;52.270;20.984;2024-01-11T14:17:29;48.80;;;16.80;;
54923;SDS011;40825;52.270;20.984;2024-01-11T14:19:55;48.10;;;16.00;;
54923;SDS011;40825;52.270;20.984;2024-01-11T14:22:26;48.60;;;16.30;;
54923;SDS011;40825;52.270;20.984;2024-01-11T14:24:52;42.00;;;16.50;;
54923;SDS011;40825;52.270;20.984;2024-01-11T14:27:19;49.10;;;17.40;;
54923;SDS011;40825;52.270;20.984;2024-01-11T14:29:49;46.10;;;14.90;;
54923;SDS011;40825;52.270;20.984;2024-01-11T14:32:15;51.60;;;17.10;;
54923;SDS011;40825;52.270;20.984;2024-01-11T14:34:43;40.30;;;14.70;;
54923;SDS011;40825;52.270;20.984;2024-01-11T14:37:12;45.90;;;15.70;;
54923;SDS011;40825;52.270;20.984;2024-01-11T14:39:38;50.00;;;16.90;;
54923;SDS011;40825;52.270;20.984;2024-01-11T14:42:04;42.30;;;15.20;;
54923;SDS011;40825;52.270;20.984;2024-01-11T14:44:30;43.80;;;16.60;;
54923;SDS011;40825;52.270;20.984;2024-01-11T14:47:14;51.80;;;16.40;;
54923;SDS011;40825;52.270;20.984;2024-01-11T14:49:41;51.70;;;17.50;;
54923;SDS011;40825;52.270;20.984;2024-01-11T14:52:07;40.70;;;13.40;;
54923;SDS011;40825;52.270;20.984;2024-01-11T14:54:35;45.90;;;15.90;;
54923;SDS011;40825;52.270;20.984;2024-01-11T14:57:09;41.60;;;17.00;;
54923;SDS011;40825;52.270;20.984;2024-01-11T14:59:38;40.40;;;15.00;;
54923;SDS011;40825;52.270;20.984;2024-01-11T15:02:13;51.40;;;16.40;;
54923;SDS011;40825;52.270;20.984;2024-01-11T15:05:29;41.20;;;15.50;;
54923;SDS011;40825;52.270;20.984;2024-01-11T15:08:08;36.20;;;14.00;;
54923;SDS011;40825;52.270;20.984;2024-01-11T15:11:20;40.40;;;14.50;;
54923;SDS011;40825;52.270;20.984;2024-01-11T15:24:39;34.40;;;12.20;;
54923;SDS011;40825;52.270;20.984;2024-01-11T15:30:17;30.00;;;12.90;;
54923;SDS011;40825;52.270;20.984;2024-01-11T15:32:53;22.40;;;9.30;;
54923;SDS011;40825;52.270;20.984;2024-01-11T15:35:36;23.70;;;10.00;;
54923;SDS011;40825;52.270;20.984;2024-01-11T15:38:01;19.80;;;6.40;;
54923;SDS011;40825;52.270;20.984;2024-01-11T15:40:43;22.00;;;9.50;;
54923;SDS011;40825;52.270;20.984;2024-01-11T15:49:57;7.30;;;3.50;;
54923;SDS011;40825;52.270;20.984;2024-01-11T16:02:22;19.00;;;8.60;;
54923;SDS011;40825;52.270;20.984;2024-01-11T16:05:14;18.80;;;8.70;;
54923;SDS011;40825;52.270;20.984;2024-01-11T16:11:37;16.90;;;8.00;;
54923;SDS011;40825;52.270;20.984;2024-01-11T16:14:27;20.00;;;8.90;;